Time;durP1;ratioP1;P1;durP2;ratioP2;P2;SDS_P1;SDS_P2;PMS_P1;PMS_P2;Temp;Humidity;BMP_temperature;BMP_pressure;BME280_temperature;BME280_humidity;BME280_pressure;Samples;Min_cycle;Max_cycle;Signal;HPM_P1;HPM_P2
2022/01/10 04:33:57;;;;;;;;;;;0.00;99.90;;;;;;5092722;27;19919;-93
2022/01/10 04:36:23;;;;;;;;;;;0.00;99.90;;;;;;5095715;28;20011;-94
2022/01/10 04:38:48;;;;;;;;;;;0.00;99.90;;;;;;5090542;28;19908;-93
2022/01/10 04:41:14;;;;;;;;;;;0.10;99.90;;;;;;5091098;28;20003;-93
2022/01/10 04:43:40;;;;;;;;;;;0.20;99.90;;;;;;5091906;28;19909;-93
2022/01/10 04:46:05;;;;;;;;;;;0.30;99.90;;;;;;5091851;28;19954;-92
2022/01/10 04:48:31;;;;;;;;;;;0.40;99.90;;;;;;5091419;28;19912;-93
2022/01/10 04:53:31;;;;;;;;;;;0.60;99.90;;;;;;5091283;28;19916;-90
2022/01/10 04:55:56;;;;;;;;;;;0.70;99.90;;;;;;5075123;28;20015;-90
2022/01/10 04:58:23;;;;;;;;;;;0.80;99.90;;;;;;5070417;28;20361;-90
2022/01/10 05:00:51;;;;;;;;;;;0.90;99.90;;;;;;5069840;28;20280;-89
2022/01/10 05:03:17;;;;;;;;;;;0.90;99.90;;;;;;5069784;28;19913;-90
2022/01/10 15:16:50;;;;;;;;;;;-1.30;99.90;;;;;;5073235;28;19917;-95
2022/01/10 15:19:15;;;;;;;;;;;-1.30;99.90;;;;;;5087070;28;19913;-94
2022/01/10 15:21:43;;;;;;;;;;;-1.30;99.90;;;;;;5070507;28;19913;-96
2022/01/10 15:24:09;;;;;;;;;;;-1.20;99.90;;;;;;5087372;28;19908;-95
2022/01/10 15:26:35;;;;;;;;;;;-1.10;99.90;;;;;;5070481;28;19958;-94
2022/01/10 15:29:02;;;;;;;;;;;-1.00;99.90;;;;;;5069431;28;19913;-96
2022/01/10 15:31:28;;;;;;;;;;;-1.00;99.90;;;;;;5071114;28;19909;-95
2022/01/10 15:33:53;;;;;;;;;;;-0.90;99.90;;;;;;5073124;28;19915;-93
2022/01/10 15:36:19;;;;;;;;;;;-0.80;99.90;;;;;;5072027;28;19916;-96
2022/01/10 15:38:46;;;;;;;;;;;-0.80;99.90;;;;;;5055722;28;19915;-95
2022/01/10 15:41:12;;;;;;;;;;;-0.80;99.90;;;;;;5072674;28;20428;-94
2022/01/10 15:43:38;;;;;;;;;;;-0.80;99.90;;;;;;5089166;28;19987;-93
2022/01/10 15:46:03;;;;;;;;;;;-0.80;99.90;;;;;;5104282;28;20388;-94
2022/01/10 15:48:29;;;;;;;;;;;-0.70;99.90;;;;;;5070314;28;19917;-96
2022/01/10 15:50:55;;;;;;;;;;;-0.70;99.90;;;;;;5070574;28;19908;-95
2022/01/10 15:53:20;;;;;;;;;;;-0.70;99.90;;;;;;5070010;28;19996;-95
2022/01/10 15:55:46;;;;;;;;;;;-0.70;99.90;;;;;;5069767;28;19913;-96
2022/01/10 15:58:11;;;;;;;;;;;-0.70;99.90;;;;;;5065054;28;19909;-94
2022/01/10 16:00:40;;;;;;;;;;;-0.70;99.90;;;;;;5061956;28;20375;-94
2022/01/10 16:03:06;;;;;;;;;;;-0.70;99.90;;;;;;5069450;28;20423;-95
2022/01/10 16:05:36;;;;;;;;;;;-0.70;99.90;;;;;;5069570;28;19909;-96
2022/01/10 16:08:03;;;;;;;;;;;-0.70;99.90;;;;;;5069467;28;19957;-93
2022/01/10 16:10:29;;;;;;;;;;;-0.70;99.90;;;;;;5079860;28;20358;-95
2022/01/10 16:12:54;;;;;;;;;;;-0.70;99.90;;;;;;5065749;28;19916;-90
2022/01/10 16:15:21;;;;;;;;;;;-0.80;99.90;;;;;;5084224;28;19924;-92
2022/01/10 16:17:47;;;;;;;;;;;-0.80;99.90;;;;;;5085230;28;20365;-91
2022/01/10 16:20:13;;;;;;;;;;;-0.80;99.90;;;;;;5085518;28;20284;-91
2022/01/10 16:22:38;;;;;;;;;;;-0.80;99.90;;;;;;5068846;28;19917;-92
2022/01/10 16:25:04;;;;;;;;;;;-0.90;99.90;;;;;;5068904;28;20365;-92
2022/01/10 16:27:30;;;;;;;;;;;-0.90;99.90;;;;;;5060264;28;19935;-92
2022/01/10 16:29:56;;;;;;;;;;;-0.90;99.90;;;;;;5066663;28;19917;-92
2022/01/10 16:32:21;;;;;;;;;;;-1.00;99.90;;;;;;5056499;28;19919;-93
2022/01/10 16:34:51;;;;;;;;;;;-0.90;99.90;;;;;;5072239;28;20315;-93
2022/01/10 16:37:19;;;;;;;;;;;-0.90;99.90;;;;;;5077236;28;19920;-95
2022/01/10 16:40:03;;;;;;;;;;;-0.90;99.90;;;;;;5065767;28;19913;-95
2022/01/10 16:42:33;;;;;;;;;;;-0.90;99.90;;;;;;5062964;28;19924;-94
2022/01/10 16:44:58;;;;;;;;;;;-0.90;99.90;;;;;;5060889;28;19910;-94
2022/01/10 16:47:24;;;;;;;;;;;-0.90;99.90;;;;;;5091671;28;20289;-95
2022/01/10 16:49:50;;;;;;;;;;;-0.90;99.90;;;;;;5079105;28;19909;-92
2022/01/10 16:52:16;;;;;;;;;;;-0.90;99.90;;;;;;5055376;28;20369;-93
2022/01/10 16:54:42;;;;;;;;;;;-0.90;99.90;;;;;;5064432;28;19990;-93
2022/01/10 16:57:08;;;;;;;;;;;-0.90;99.90;;;;;;5060071;28;19912;-96
2022/01/10 16:59:34;;;;;;;;;;;-0.90;99.90;;;;;;5074343;28;19921;-94
2022/01/10 17:02:00;;;;;;;;;;;-0.90;99.90;;;;;;5056033;28;19967;-94
2022/01/10 17:04:26;;;;;;;;;;;-0.90;99.90;;;;;;5054857;28;19920;-92
2022/01/10 17:06:52;;;;;;;;;;;-0.90;99.90;;;;;;5061215;28;19913;-92
2022/01/10 17:09:18;;;;;;;;;;;-0.90;99.90;;;;;;5052843;28;19913;-91
2022/01/10 17:11:44;;;;;;;;;;;-0.90;99.90;;;;;;5074652;28;20353;-93
2022/01/10 17:14:09;;;;;;;;;;;-0.90;99.90;;;;;;5078774;28;19924;-93
2022/01/10 17:16:36;;;;;;;;;;;-1.00;99.90;;;;;;5055073;28;19924;-94
2022/01/10 17:19:02;;;;;;;;;;;-1.00;99.90;;;;;;5060987;28;19913;-93
2022/01/10 17:21:28;;;;;;;;;;;-1.00;99.90;;;;;;5086623;28;19935;-95
2022/01/10 17:23:56;;;;;;;;;;;-1.00;99.90;;;;;;5101131;28;19916;-95
2022/01/10 17:26:27;;;;;;;;;;;-1.00;99.90;;;;;;5077349;28;19984;-96
2022/01/10 17:28:55;;;;;;;;;;;-1.10;99.90;;;;;;5069810;28;19917;-95
2022/01/10 17:31:20;;;;;;;;;;;-1.10;99.90;;;;;;5070715;28;19935;-94
2022/01/10 17:47:14;;;;;;;;;;;-1.20;99.90;;;;;;5395556;22;19925;-96
2022/01/10 17:49:48;;;;;;;;;;;-1.20;99.90;;;;;;5029465;28;19935;-95
2022/01/10 17:52:24;;;;;;;;;;;-1.20;99.90;;;;;;5032857;28;19917;-95
2022/01/10 17:54:50;;;;;;;;;;;-1.30;99.90;;;;;;5034742;28;19921;-96
2022/01/10 17:57:39;;;;;;;;;;;-1.30;99.90;;;;;;5033396;28;19909;-95
2022/01/10 18:00:06;;;;;;;;;;;-1.30;99.90;;;;;;5043574;28;19913;-94
2022/01/10 18:02:35;;;;;;;;;;;-1.30;99.90;;;;;;5028458;28;19968;-96
2022/01/10 18:05:02;;;;;;;;;;;-1.30;99.90;;;;;;5022649;28;19913;-96
2022/01/10 18:07:28;;;;;;;;;;;-1.30;99.90;;;;;;5018715;28;19955;-92
2022/01/10 18:09:53;;;;;;;;;;;-1.30;99.90;;;;;;5036862;28;19913;-95
2022/01/10 18:12:21;;;;;;;;;;;-1.30;99.90;;;;;;5026205;28;19914;-94
2022/01/10 18:14:47;;;;;;;;;;;-1.30;99.90;;;;;;5020012;28;19921;-94
2022/01/10 18:17:12;;;;;;;;;;;-1.30;99.90;;;;;;5019274;28;19928;-94
2022/01/10 18:19:38;;;;;;;;;;;-1.30;99.90;;;;;;5032624;28;19917;-94
2022/01/10 18:22:07;;;;;;;;;;;-1.40;99.90;;;;;;5018558;28;20019;-96
2022/01/10 18:24:33;;;;;;;;;;;-1.40;99.90;;;;;;5024115;28;19909;-96
2022/01/10 18:27:02;;;;;;;;;;;-1.40;99.90;;;;;;5028100;28;19939;-96
2022/01/10 18:29:48;;;;;;;;;;;-1.40;99.90;;;;;;5016273;28;19914;-96
2022/01/10 18:38:28;;;;;;;;;;;-1.40;99.90;;;;;;5032390;28;19916;-95
2022/01/10 18:40:54;;;;;;;;;;;-1.50;99.90;;;;;;5020461;28;20011;-95
2022/01/10 18:51:21;;;;;;;;;;;-1.80;99.90;;;;;;5089158;23;19926;-94
2022/01/10 18:53:47;;;;;;;;;;;-1.80;99.90;;;;;;5014372;28;20266;-95
2022/01/10 18:56:12;;;;;;;;;;;-1.80;99.90;;;;;;5031375;28;19901;-96
2022/01/10 18:58:41;;;;;;;;;;;-1.80;99.90;;;;;;5038067;28;20380;-96
2022/01/10 19:03:48;;;;;;;;;;;-1.90;99.90;;;;;;5117297;23;19925;-95
2022/01/10 19:06:17;;;;;;;;;;;-1.90;99.90;;;;;;5439639;22;20015;-96
2022/01/10 19:08:43;;;;;;;;;;;-2.00;99.90;;;;;;5056143;28;19896;-96
2022/01/10 19:29:25;;;;;;;;;;;-2.20;99.90;;;;;;5741587;23;19924;-94
2022/01/10 19:31:54;;;;;;;;;;;-2.30;99.90;;;;;;5057065;28;19912;-93
2022/01/10 19:34:19;;;;;;;;;;;-2.20;99.90;;;;;;5057429;28;19931;-91
2022/01/10 19:36:45;;;;;;;;;;;-2.30;99.90;;;;;;5058235;28;19916;-95
2022/01/10 19:39:14;;;;;;;;;;;-2.30;99.90;;;;;;5068940;28;19913;-96
2022/01/10 19:41:42;;;;;;;;;;;-2.30;99.90;;;;;;5056701;28;19922;-95
2022/01/10 19:44:08;;;;;;;;;;;-2.40;99.90;;;;;;5057539;28;19916;-93
2022/01/10 19:46:33;;;;;;;;;;;-2.50;99.90;;;;;;5056329;28;20427;-93
2022/01/10 19:48:59;;;;;;;;;;;-2.50;99.90;;;;;;5053875;28;19913;-92
2022/01/10 19:51:25;;;;;;;;;;;-2.50;99.90;;;;;;5056213;28;19958;-92
2022/01/10 19:53:50;;;;;;;;;;;-2.50;99.90;;;;;;5055287;28;19912;-93
2022/01/10 19:56:16;;;;;;;;;;;-2.50;99.90;;;;;;5060803;28;19919;-92
2022/01/10 19:58:41;;;;;;;;;;;-2.60;99.90;;;;;;5045180;28;19913;-92
2022/01/10 20:01:07;;;;;;;;;;;-2.60;99.90;;;;;;5046308;28;20011;-93
2022/01/10 20:03:35;;;;;;;;;;;-2.60;99.90;;;;;;5064378;28;19913;-92
2022/01/10 20:06:01;;;;;;;;;;;-2.60;99.90;;;;;;5058800;28;19912;-92
2022/01/10 20:08:26;;;;;;;;;;;-2.60;99.90;;;;;;5056149;28;19927;-91
2022/01/10 20:10:54;;;;;;;;;;;-2.70;99.90;;;;;;5056542;28;19912;-93
2022/01/10 20:13:20;;;;;;;;;;;-2.70;99.90;;;;;;5049032;28;19916;-93
2022/01/10 22:57:05;;;;;;;;;;;-4.60;99.90;;;;;;5104332;27;19913;-96
2022/01/10 22:59:31;;;;;;;;;;;-4.60;99.90;;;;;;5059556;28;20443;-93
2022/01/10 23:01:56;;;;;;;;;;;-4.60;99.90;;;;;;5050704;28;20400;-93
2022/01/10 23:05:53;;;;;;;;;;;-4.40;99.90;;;;;;5112684;27;19916;-94
2022/01/10 23:08:18;;;;;;;;;;;-4.30;99.90;;;;;;5112681;28;19914;-95
2022/01/10 23:10:44;;;;;;;;;;;-4.20;99.90;;;;;;5111031;28;19908;-94
2022/01/10 23:13:09;;;;;;;;;;;-4.10;99.90;;;;;;5111886;28;20360;-95
2022/01/10 23:15:35;;;;;;;;;;;-4.00;99.90;;;;;;5111320;28;20343;-95
2022/01/10 23:18:01;;;;;;;301.10;268.45;;;-3.90;99.90;;;;;;5100529;28;19904;-94
